This is the latest recevied weather packets stored in our database for station/object VA2EYZ-13. If no packets are shown the sender has not sent any weather packets the latest 10 day(s).
| Time | Temp. | Humidity | Pressure | Rain* | Wind** | Luminosity | Snow |
|---|---|---|---|---|---|---|---|
| 1788558776 | 21.67° C | 85% | 1011 hPa | - | - | - | - |
| 1788558441 | 21.67° C | 85% | 1011 hPa | - | - | - | - |
| 1788556515 | 21.67° C | 85% | 1011 hPa | - | - | - | - |
| 1788554851 | 21.11° C | 86% | 1010 hPa | - | - | - | - |
| 1788554052 | 21.11° C | 86% | 1011 hPa | - | - | - | - |
| 1788553377 | 21.11° C | 86% | 1011 hPa | - | - | - | - |
| 1788552903 | 21.11° C | 86% | 1011 hPa | - | - | - | - |
| 1788551336 | 21.11° C | 85% | 1011 hPa | - | - | - | - |
| 1788549799 | 20.56° C | 84% | 1011.2 hPa | - | - | - | - |
| 1788549141 | 22.22° C | 77% | 1011 hPa | - | - | - | - |
| 1788548129 | 21.67° C | 82% | 1011 hPa | - | - | - | - |
| 1788547656 | 21.67° C | 82% | 1011 hPa | - | - | - | - |
| 1788546394 | 21.11° C | 81% | 1011 hPa | - | - | - | - |
| 1788546086 | 20.56° C | 81% | 1011 hPa | - | - | - | - |
| 1788545749 | 20.56° C | 80% | 1011 hPa | - | - | - | - |
| 1788543759 | 21.67° C | 71% | 1011 hPa | - | - | - | - |
| 1788543117 | 22.22° C | 68% | 1011 hPa | - | - | - | - |
| 1788542779 | 22.78° C | 66% | 1011 hPa | - | - | - | - |
| 1788541159 | 23.33° C | 64% | 1011.2 hPa | - | - | - | - |
| 1788540181 | 23.89° C | 65% | 1011.2 hPa | - | - | - | - |
| 1788538088 | 23.89° C | 64% | 1011 hPa | - | - | - | - |
| 1788537780 | 23.33° C | 64% | 1011 hPa | - | - | - | - |
| 1788537396 | 23.33° C | 66% | 1011 hPa | - | - | - | - |
| 1788537025 | 23.33° C | 65% | 1011 hPa | - | - | - | - |
| 1788535996 | 23.33° C | 68% | 1011 hPa | - | - | - | - |
* Rain since midnight (hover to see other rain measurements)
** Current wind speed in m/s (hover to see current wind gust speed)